sensor_id;sensor_type;location;lat;lon;timestamp;pressure;altitude;pressure_sealevel;temperature;humidity
74218;BME280;62579;47.288;18.646;2023-08-20T00:01:56;100185.78;;;21.19;99.02
74218;BME280;62579;47.288;18.646;2023-08-20T00:04:24;100177.69;;;21.21;98.68
74218;BME280;62579;47.288;18.646;2023-08-20T00:06:51;100185.78;;;21.19;98.77
74218;BME280;62579;47.288;18.646;2023-08-20T00:09:16;100178.44;;;21.22;98.56
74218;BME280;62579;47.288;18.646;2023-08-20T00:11:42;100184.28;;;21.26;98.31
74218;BME280;62579;47.288;18.646;2023-08-20T00:14:07;100187.19;;;21.35;97.72
74218;BME280;62579;47.288;18.646;2023-08-20T00:16:33;100180.31;;;21.44;97.11
74218;BME280;62579;47.288;18.646;2023-08-20T00:18:58;100175.66;;;21.46;96.82
74218;BME280;62579;47.288;18.646;2023-08-20T00:21:24;100171.78;;;21.49;96.59
74218;BME280;62579;47.288;18.646;2023-08-20T00:23:49;100173.59;;;21.54;96.15
74218;BME280;62579;47.288;18.646;2023-08-20T00:26:15;100175.28;;;21.50;96.50
74218;BME280;62579;47.288;18.646;2023-08-20T00:28:40;100174.16;;;21.53;96.04
74218;BME280;62579;47.288;18.646;2023-08-20T00:31:06;100168.78;;;21.55;95.72
74218;BME280;62579;47.288;18.646;2023-08-20T00:33:31;100175.81;;;21.56;95.29
74218;BME280;62579;47.288;18.646;2023-08-20T00:35:57;100168.47;;;21.51;95.31
74218;BME280;62579;47.288;18.646;2023-08-20T00:38:22;100161.78;;;21.54;94.81
74218;BME280;62579;47.288;18.646;2023-08-20T00:40:48;100165.91;;;21.45;95.56
74218;BME280;62579;47.288;18.646;2023-08-20T00:43:13;100162.78;;;21.41;95.95
74218;BME280;62579;47.288;18.646;2023-08-20T00:45:40;100165.22;;;21.37;96.31
74218;BME280;62579;47.288;18.646;2023-08-20T00:48:06;100168.31;;;21.41;95.83
74218;BME280;62579;47.288;18.646;2023-08-20T00:50:31;100158.72;;;21.42;95.60
74218;BME280;62579;47.288;18.646;2023-08-20T00:52:57;100158.56;;;21.40;95.79
74218;BME280;62579;47.288;18.646;2023-08-20T00:55:22;100155.78;;;21.40;95.98
74218;BME280;62579;47.288;18.646;2023-08-20T00:57:48;100158.38;;;21.38;95.83
74218;BME280;62579;47.288;18.646;2023-08-20T01:00:13;100163.91;;;21.38;95.86
74218;BME280;62579;47.288;18.646;2023-08-20T01:02:39;100166.50;;;21.36;96.23
74218;BME280;62579;47.288;18.646;2023-08-20T01:05:08;100164.69;;;21.31;96.54
74218;BME280;62579;47.288;18.646;2023-08-20T01:07:53;100176.19;;;21.20;96.43
74218;BME280;62579;47.288;18.646;2023-08-20T01:10:41;100171.31;;;20.96;97.61
74218;BME280;62579;47.288;18.646;2023-08-20T01:13:08;100177.09;;;20.83;98.63
74218;BME280;62579;47.288;18.646;2023-08-20T01:15:34;100169.03;;;20.70;99.91
74218;BME280;62579;47.288;18.646;2023-08-20T01:18:00;100167.72;;;20.71;99.79
74218;BME280;62579;47.288;18.646;2023-08-20T01:20:30;100166.06;;;20.75;99.63
74218;BME280;62579;47.288;18.646;2023-08-20T01:23:12;100166.81;;;20.76;100.00
74218;BME280;62579;47.288;18.646;2023-08-20T01:26:15;100168.97;;;20.85;99.72
74218;BME280;62579;47.288;18.646;2023-08-20T01:28:46;100167.50;;;20.84;100.00
74218;BME280;62579;47.288;18.646;2023-08-20T01:31:12;100176.94;;;20.81;100.00
74218;BME280;62579;47.288;18.646;2023-08-20T01:33:37;100181.72;;;20.80;100.00
74218;BME280;62579;47.288;18.646;2023-08-20T01:36:03;100176.53;;;20.84;99.75
74218;BME280;62579;47.288;18.646;2023-08-20T01:38:35;100190.78;;;20.73;99.25
74218;BME280;62579;47.288;18.646;2023-08-20T01:41:00;100187.13;;;20.56;99.95
74218;BME280;62579;47.288;18.646;2023-08-20T01:43:25;100190.09;;;20.50;99.87
74218;BME280;62579;47.288;18.646;2023-08-20T01:45:51;100185.31;;;20.51;99.56
74218;BME280;62579;47.288;18.646;2023-08-20T01:48:16;100189.37;;;20.42;100.00
74218;BME280;62579;47.288;18.646;2023-08-20T01:50:41;100191.56;;;20.59;98.94
74218;BME280;62579;47.288;18.646;2023-08-20T01:53:07;100187.81;;;20.71;98.20
74218;BME280;62579;47.288;18.646;2023-08-20T01:55:33;100175.66;;;20.74;98.10
74218;BME280;62579;47.288;18.646;2023-08-20T01:57:59;100186.34;;;20.78;97.39
74218;BME280;62579;47.288;18.646;2023-08-20T02:00:26;100183.37;;;20.83;96.91
74218;BME280;62579;47.288;18.646;2023-08-20T02:02:52;100181.16;;;20.82;97.09
74218;BME280;62579;47.288;18.646;2023-08-20T02:05:18;100176.16;;;20.88;96.57
74218;BME280;62579;47.288;18.646;2023-08-20T02:07:43;100182.03;;;20.92;96.29
74218;BME280;62579;47.288;18.646;2023-08-20T02:10:08;100178.12;;;20.95;96.16
74218;BME280;62579;47.288;18.646;2023-08-20T02:12:34;100186.22;;;21.01;95.77
74218;BME280;62579;47.288;18.646;2023-08-20T02:14:59;100182.19;;;21.02;95.65
74218;BME280;62579;47.288;18.646;2023-08-20T02:17:24;100176.47;;;21.00;96.03
74218;BME280;62579;47.288;18.646;2023-08-20T02:19:50;100176.63;;;21.02;95.83
74218;BME280;62579;47.288;18.646;2023-08-20T02:22:15;100171.84;;;21.02;95.64
74218;BME280;62579;47.288;18.646;2023-08-20T02:24:40;100163.16;;;21.06;95.43
74218;BME280;62579;47.288;18.646;2023-08-20T02:27:06;100173.72;;;21.00;96.14
74218;BME280;62579;47.288;18.646;2023-08-20T02:29:31;100170.38;;;21.01;95.99
74218;BME280;62579;47.288;18.646;2023-08-20T02:31:56;100164.50;;;20.97;96.14
74218;BME280;62579;47.288;18.646;2023-08-20T02:34:22;100171.69;;;21.00;95.78
74218;BME280;62579;47.288;18.646;2023-08-20T02:36:47;100165.94;;;20.98;95.95
74218;BME280;62579;47.288;18.646;2023-08-20T02:39:13;100165.63;;;20.94;96.29
74218;BME280;62579;47.288;18.646;2023-08-20T02:41:39;100168.22;;;20.92;96.48
74218;BME280;62579;47.288;18.646;2023-08-20T02:44:04;100162.47;;;20.98;95.91
74218;BME280;62579;47.288;18.646;2023-08-20T02:46:30;100164.50;;;20.97;95.71
74218;BME280;62579;47.288;18.646;2023-08-20T02:49:04;100166.16;;;21.00;95.44
74218;BME280;62579;47.288;18.646;2023-08-20T02:51:30;100171.47;;;21.06;94.77
74218;BME280;62579;47.288;18.646;2023-08-20T02:53:55;100175.34;;;21.03;94.91
74218;BME280;62579;47.288;18.646;2023-08-20T02:56:20;100176.69;;;20.94;95.45
74218;BME280;62579;47.288;18.646;2023-08-20T02:58:48;100180.53;;;20.98;95.01
74218;BME280;62579;47.288;18.646;2023-08-20T03:01:41;100178.72;;;20.93;95.17
74218;BME280;62579;47.288;18.646;2023-08-20T03:04:16;100178.88;;;20.95;94.67
74218;BME280;62579;47.288;18.646;2023-08-20T03:06:42;100176.31;;;20.90;94.38
74218;BME280;62579;47.288;18.646;2023-08-20T03:09:07;100174.66;;;20.94;93.49
74218;BME280;62579;47.288;18.646;2023-08-20T03:11:33;100171.69;;;21.00;92.52
74218;BME280;62579;47.288;18.646;2023-08-20T03:13:58;100165.00;;;21.11;91.32
74218;BME280;62579;47.288;18.646;2023-08-20T03:16:23;100181.22;;;21.14;90.62
74218;BME280;62579;47.288;18.646;2023-08-20T03:18:49;100177.38;;;21.10;90.56
74218;BME280;62579;47.288;18.646;2023-08-20T03:21:14;100174.62;;;21.02;91.00
74218;BME280;62579;47.288;18.646;2023-08-20T03:23:39;100178.84;;;21.03;90.63
74218;BME280;62579;47.288;18.646;2023-08-20T03:26:04;100179.78;;;21.06;90.20
74218;BME280;62579;47.288;18.646;2023-08-20T03:28:30;100180.88;;;21.10;89.67
74218;BME280;62579;47.288;18.646;2023-08-20T03:30:59;100184.38;;;21.11;89.68
74218;BME280;62579;47.288;18.646;2023-08-20T03:33:25;100193.22;;;21.09;89.57
74218;BME280;62579;47.288;18.646;2023-08-20T03:35:50;100185.47;;;21.15;89.11
74218;BME280;62579;47.288;18.646;2023-08-20T03:38:15;100181.22;;;21.14;89.43
74218;BME280;62579;47.288;18.646;2023-08-20T03:40:40;100188.06;;;21.13;90.20
74218;BME280;62579;47.288;18.646;2023-08-20T03:43:06;100188.28;;;21.00;91.95
74218;BME280;62579;47.288;18.646;2023-08-20T03:45:31;100193.81;;;21.08;92.21
74218;BME280;62579;47.288;18.646;2023-08-20T03:47:56;100201.53;;;21.09;92.74
74218;BME280;62579;47.288;18.646;2023-08-20T03:50:22;100195.63;;;21.05;93.64
74218;BME280;62579;47.288;18.646;2023-08-20T03:52:48;100203.03;;;21.03;93.89
74218;BME280;62579;47.288;18.646;2023-08-20T03:55:13;100203.94;;;21.05;93.95
74218;BME280;62579;47.288;18.646;2023-08-20T03:57:39;100203.94;;;21.05;94.51
74218;BME280;62579;47.288;18.646;2023-08-20T04:00:05;100212.03;;;21.03;95.39
74218;BME280;62579;47.288;18.646;2023-08-20T04:02:34;100206.72;;;21.05;95.87
74218;BME280;62579;47.288;18.646;2023-08-20T04:05:03;100219.63;;;21.10;95.79
74218;BME280;62579;47.288;18.646;2023-08-20T04:07:29;100217.03;;;21.12;95.69
74218;BME280;62579;47.288;18.646;2023-08-20T04:09:54;100223.31;;;21.13;95.94
74218;BME280;62579;47.288;18.646;2023-08-20T04:12:20;100223.47;;;21.15;95.78
74218;BME280;62579;47.288;18.646;2023-08-20T04:14:45;100222.94;;;21.16;95.77
74218;BME280;62579;47.288;18.646;2023-08-20T04:17:10;100219.00;;;21.19;95.80
74218;BME280;62579;47.288;18.646;2023-08-20T04:19:36;100222.34;;;21.18;96.29
74218;BME280;62579;47.288;18.646;2023-08-20T04:22:01;100227.31;;;21.19;96.14
74218;BME280;62579;47.288;18.646;2023-08-20T04:24:26;100230.66;;;21.18;96.31
74218;BME280;62579;47.288;18.646;2023-08-20T04:26:52;100227.75;;;21.08;96.97
74218;BME280;62579;47.288;18.646;2023-08-20T04:29:17;100227.00;;;21.08;97.22
74218;BME280;62579;47.288;18.646;2023-08-20T04:31:43;100232.72;;;21.02;97.80
74218;BME280;62579;47.288;18.646;2023-08-20T04:34:09;100232.91;;;21.04;97.84
74218;BME280;62579;47.288;18.646;2023-08-20T04:36:35;100229.03;;;21.07;97.94
74218;BME280;62579;47.288;18.646;2023-08-20T04:39:00;100229.38;;;21.11;97.84
74218;BME280;62579;47.288;18.646;2023-08-20T04:41:26;100227.37;;;21.04;98.99
74218;BME280;62579;47.288;18.646;2023-08-20T04:43:52;100229.06;;;21.00;99.42
74218;BME280;62579;47.288;18.646;2023-08-20T04:46:17;100226.06;;;21.05;99.35
74218;BME280;62579;47.288;18.646;2023-08-20T04:48:43;100228.84;;;21.05;99.79
74218;BME280;62579;47.288;18.646;2023-08-20T04:51:08;100231.19;;;21.24;98.07
74218;BME280;62579;47.288;18.646;2023-08-20T04:53:34;100220.97;;;21.34;97.20
74218;BME280;62579;47.288;18.646;2023-08-20T04:55:59;100229.06;;;21.39;95.86
74218;BME280;62579;47.288;18.646;2023-08-20T04:58:24;100222.38;;;21.50;93.82
74218;BME280;62579;47.288;18.646;2023-08-20T05:00:50;100230.78;;;21.60;93.58
74218;BME280;62579;47.288;18.646;2023-08-20T05:03:15;100227.56;;;21.71;93.10
74218;BME280;62579;47.288;18.646;2023-08-20T05:05:48;100241.22;;;21.76;93.30
74218;BME280;62579;47.288;18.646;2023-08-20T05:08:13;100240.09;;;21.79;92.62
74218;BME280;62579;47.288;18.646;2023-08-20T05:10:39;100235.59;;;21.91;91.61
74218;BME280;62579;47.288;18.646;2023-08-20T05:13:05;100237.00;;;22.00;91.12
74218;BME280;62579;47.288;18.646;2023-08-20T05:15:30;100234.78;;;21.98;90.44
74218;BME280;62579;47.288;18.646;2023-08-20T05:17:55;100245.88;;;21.98;89.85
74218;BME280;62579;47.288;18.646;2023-08-20T05:20:21;100249.69;;;22.10;89.24
74218;BME280;62579;47.288;18.646;2023-08-20T05:22:46;100246.34;;;22.12;89.58
74218;BME280;62579;47.288;18.646;2023-08-20T05:25:11;100248.53;;;22.13;90.37
74218;BME280;62579;47.288;18.646;2023-08-20T05:27:37;100249.16;;;22.04;91.71
74218;BME280;62579;47.288;18.646;2023-08-20T05:30:02;100253.13;;;22.19;91.44
74218;BME280;62579;47.288;18.646;2023-08-20T05:32:28;100252.16;;;22.41;90.12
74218;BME280;62579;47.288;18.646;2023-08-20T05:34:53;100245.66;;;22.46;89.76
74218;BME280;62579;47.288;18.646;2023-08-20T05:37:19;100256.69;;;22.53;89.55
74218;BME280;62579;47.288;18.646;2023-08-20T05:39:44;100252.94;;;22.58;89.46
74218;BME280;62579;47.288;18.646;2023-08-20T05:42:10;100257.13;;;22.84;90.06
74218;BME280;62579;47.288;18.646;2023-08-20T05:44:35;100250.84;;;23.01;89.76
74218;BME280;62579;47.288;18.646;2023-08-20T05:47:01;100250.87;;;23.10;88.81
74218;BME280;62579;47.288;18.646;2023-08-20T05:49:27;100266.34;;;23.04;90.09
74218;BME280;62579;47.288;18.646;2023-08-20T05:51:56;100260.06;;;23.03;90.27
74218;BME280;62579;47.288;18.646;2023-08-20T05:54:21;100267.87;;;23.14;86.85
74218;BME280;62579;47.288;18.646;2023-08-20T05:56:46;100268.13;;;23.09;86.08
74218;BME280;62579;47.288;18.646;2023-08-20T05:59:17;100270.41;;;23.20;85.31
74218;BME280;62579;47.288;18.646;2023-08-20T06:01:53;100272.69;;;23.31;84.40
74218;BME280;62579;47.288;18.646;2023-08-20T06:04:19;100277.09;;;23.34;84.17
74218;BME280;62579;47.288;18.646;2023-08-20T06:06:45;100277.56;;;23.40;84.18
74218;BME280;62579;47.288;18.646;2023-08-20T06:09:10;100280.84;;;23.46;83.54
74218;BME280;62579;47.288;18.646;2023-08-20T06:11:35;100280.72;;;23.54;83.21
74218;BME280;62579;47.288;18.646;2023-08-20T06:14:01;100275.06;;;23.61;84.66
74218;BME280;62579;47.288;18.646;2023-08-20T06:16:26;100275.53;;;23.67;85.91
74218;BME280;62579;47.288;18.646;2023-08-20T06:18:51;100273.97;;;23.74;85.33
74218;BME280;62579;47.288;18.646;2023-08-20T06:21:17;100271.16;;;24.01;83.79
74218;BME280;62579;47.288;18.646;2023-08-20T06:23:42;100279.34;;;23.99;84.60
74218;BME280;62579;47.288;18.646;2023-08-20T06:26:07;100280.87;;;24.09;84.17
74218;BME280;62579;47.288;18.646;2023-08-20T06:28:32;100276.66;;;24.18;82.81
74218;BME280;62579;47.288;18.646;2023-08-20T06:30:58;100280.22;;;24.28;82.65
74218;BME280;62579;47.288;18.646;2023-08-20T06:33:23;100272.59;;;24.38;83.50
74218;BME280;62579;47.288;18.646;2023-08-20T06:35:48;100274.69;;;24.47;83.07
74218;BME280;62579;47.288;18.646;2023-08-20T06:38:14;100271.59;;;24.43;80.08
74218;BME280;62579;47.288;18.646;2023-08-20T06:40:39;100275.88;;;24.63;78.30
74218;BME280;62579;47.288;18.646;2023-08-20T06:43:04;100270.16;;;24.71;78.27
74218;BME280;62579;47.288;18.646;2023-08-20T06:45:30;100275.44;;;24.67;78.50
74218;BME280;62579;47.288;18.646;2023-08-20T06:47:56;100265.06;;;24.77;78.72
74218;BME280;62579;47.288;18.646;2023-08-20T06:50:22;100268.75;;;24.79;78.35
74218;BME280;62579;47.288;18.646;2023-08-20T06:52:48;100263.03;;;24.87;79.12
74218;BME280;62579;47.288;18.646;2023-08-20T06:55:13;100262.72;;;25.02;79.51
74218;BME280;62579;47.288;18.646;2023-08-20T06:57:38;100265.94;;;25.18;77.86
74218;BME280;62579;47.288;18.646;2023-08-20T07:00:04;100264.75;;;25.21;77.02
74218;BME280;62579;47.288;18.646;2023-08-20T07:02:30;100266.38;;;25.33;76.06
74218;BME280;62579;47.288;18.646;2023-08-20T07:04:56;100262.66;;;25.40;76.63
74218;BME280;62579;47.288;18.646;2023-08-20T07:07:21;100263.84;;;25.47;75.14
74218;BME280;62579;47.288;18.646;2023-08-20T07:09:47;100261.47;;;25.53;76.14
74218;BME280;62579;47.288;18.646;2023-08-20T07:12:12;100276.59;;;25.59;76.36
74218;BME280;62579;47.288;18.646;2023-08-20T07:14:37;100273.81;;;25.90;76.97
74218;BME280;62579;47.288;18.646;2023-08-20T07:17:03;100270.91;;;25.88;75.45
74218;BME280;62579;47.288;18.646;2023-08-20T07:19:29;100273.44;;;26.15;74.37
74218;BME280;62579;47.288;18.646;2023-08-20T07:21:54;100275.78;;;26.18;75.04
74218;BME280;62579;47.288;18.646;2023-08-20T07:24:20;100275.53;;;26.36;74.10
74218;BME280;62579;47.288;18.646;2023-08-20T07:26:50;100277.22;;;26.50;72.42
74218;BME280;62579;47.288;18.646;2023-08-20T07:29:16;100276.47;;;26.71;72.59
74218;BME280;62579;47.288;18.646;2023-08-20T07:31:41;100277.94;;;26.72;74.15
74218;BME280;62579;47.288;18.646;2023-08-20T07:34:06;100276.12;;;26.76;73.43
74218;BME280;62579;47.288;18.646;2023-08-20T07:36:32;100274.84;;;26.77;73.42
74218;BME280;62579;47.288;18.646;2023-08-20T07:39:00;100282.78;;;26.93;71.95
74218;BME280;62579;47.288;18.646;2023-08-20T07:41:26;100279.59;;;27.08;69.62
74218;BME280;62579;47.288;18.646;2023-08-20T07:43:51;100288.84;;;27.22;70.15
74218;BME280;62579;47.288;18.646;2023-08-20T07:46:18;100285.72;;;27.27;70.27
74218;BME280;62579;47.288;18.646;2023-08-20T07:48:44;100278.94;;;27.30;71.04
74218;BME280;62579;47.288;18.646;2023-08-20T07:51:09;100283.88;;;27.53;71.34
74218;BME280;62579;47.288;18.646;2023-08-20T07:53:35;100276.34;;;27.56;70.30
74218;BME280;62579;47.288;18.646;2023-08-20T07:56:00;100280.00;;;27.81;68.24
74218;BME280;62579;47.288;18.646;2023-08-20T07:58:26;100281.47;;;27.82;69.18
74218;BME280;62579;47.288;18.646;2023-08-20T08:00:53;100282.47;;;27.75;69.38
74218;BME280;62579;47.288;18.646;2023-08-20T08:03:18;100281.97;;;27.79;70.29
74218;BME280;62579;47.288;18.646;2023-08-20T08:05:47;100280.75;;;27.93;69.34
74218;BME280;62579;47.288;18.646;2023-08-20T08:08:14;100285.16;;;28.08;69.46
74218;BME280;62579;47.288;18.646;2023-08-20T08:10:40;100285.16;;;28.20;67.86
74218;BME280;62579;47.288;18.646;2023-08-20T08:18:09;100287.94;;;28.31;67.86
74218;BME280;62579;47.288;18.646;2023-08-20T08:20:34;100282.69;;;28.37;66.44
74218;BME280;62579;47.288;18.646;2023-08-20T08:23:00;100288.28;;;28.37;66.75
74218;BME280;62579;47.288;18.646;2023-08-20T08:25:25;100289.97;;;28.54;64.82
74218;BME280;62579;47.288;18.646;2023-08-20T08:27:51;100295.56;;;28.54;66.16
74218;BME280;62579;47.288;18.646;2023-08-20T08:30:17;100289.94;;;28.77;64.50
74218;BME280;62579;47.288;18.646;2023-08-20T08:32:43;100277.75;;;28.73;64.77
74218;BME280;62579;47.288;18.646;2023-08-20T08:35:08;100291.34;;;28.90;64.51
74218;BME280;62579;47.288;18.646;2023-08-20T08:37:33;100287.44;;;28.95;63.96
74218;BME280;62579;47.288;18.646;2023-08-20T08:39:59;100282.47;;;28.93;64.80
74218;BME280;62579;47.288;18.646;2023-08-20T08:42:25;100287.31;;;29.18;63.64
74218;BME280;62579;47.288;18.646;2023-08-20T08:44:50;100288.97;;;29.09;64.47
74218;BME280;62579;47.288;18.646;2023-08-20T08:47:17;100282.59;;;29.21;62.73
74218;BME280;62579;47.288;18.646;2023-08-20T08:49:45;100290.59;;;29.26;63.12
74218;BME280;62579;47.288;18.646;2023-08-20T08:52:11;100281.41;;;29.37;61.79
74218;BME280;62579;47.288;18.646;2023-08-20T08:54:39;100283.28;;;29.33;62.86
74218;BME280;62579;47.288;18.646;2023-08-20T08:57:05;100290.94;;;29.32;64.01
74218;BME280;62579;47.288;18.646;2023-08-20T08:59:31;100288.25;;;29.34;62.52
74218;BME280;62579;47.288;18.646;2023-08-20T09:01:56;100289.56;;;29.45;60.82
74218;BME280;62579;47.288;18.646;2023-08-20T09:04:23;100283.81;;;29.43;62.39
74218;BME280;62579;47.288;18.646;2023-08-20T09:06:53;100287.31;;;29.30;61.38
74218;BME280;62579;47.288;18.646;2023-08-20T09:09:21;100299.91;;;29.42;62.96
74218;BME280;62579;47.288;18.646;2023-08-20T09:11:49;100291.66;;;29.58;62.70
74218;BME280;62579;47.288;18.646;2023-08-20T09:14:28;100291.56;;;29.31;61.77
74218;BME280;62579;47.288;18.646;2023-08-20T09:16:58;100292.41;;;29.72;59.98
74218;BME280;62579;47.288;18.646;2023-08-20T09:19:23;100288.25;;;29.73;59.51
74218;BME280;62579;47.288;18.646;2023-08-20T09:21:49;100286.22;;;29.87;59.49
74218;BME280;62579;47.288;18.646;2023-08-20T09:24:25;100295.06;;;29.82;59.09
74218;BME280;62579;47.288;18.646;2023-08-20T09:26:56;100291.94;;;29.89;59.12
74218;BME280;62579;47.288;18.646;2023-08-20T09:29:22;100293.81;;;29.85;58.45
74218;BME280;62579;47.288;18.646;2023-08-20T09:35:17;100285.41;;;30.12;58.36
74218;BME280;62579;47.288;18.646;2023-08-20T09:37:48;100281.34;;;30.15;56.90
74218;BME280;62579;47.288;18.646;2023-08-20T09:40:16;100284.06;;;30.13;57.17
74218;BME280;62579;47.288;18.646;2023-08-20T09:45:21;100280.50;;;30.12;56.92
74218;BME280;62579;47.288;18.646;2023-08-20T09:47:48;100275.84;;;30.17;58.57
74218;BME280;62579;47.288;18.646;2023-08-20T09:50:17;100284.69;;;30.52;57.61
74218;BME280;62579;47.288;18.646;2023-08-20T09:53:05;100287.59;;;30.41;57.90
74218;BME280;62579;47.288;18.646;2023-08-20T09:55:35;100274.78;;;30.65;56.30
74218;BME280;62579;47.288;18.646;2023-08-20T09:58:03;100283.09;;;30.63;57.21
74218;BME280;62579;47.288;18.646;2023-08-20T10:00:30;100278.94;;;30.50;55.58
74218;BME280;62579;47.288;18.646;2023-08-20T10:02:56;100266.78;;;30.59;56.49
74218;BME280;62579;47.288;18.646;2023-08-20T10:05:22;100269.50;;;30.57;55.78
74218;BME280;62579;47.288;18.646;2023-08-20T10:07:49;100277.06;;;30.68;54.57
74218;BME280;62579;47.288;18.646;2023-08-20T10:10:14;100263.69;;;30.82;56.38
74218;BME280;62579;47.288;18.646;2023-08-20T10:12:42;100269.09;;;30.92;55.28
74218;BME280;62579;47.288;18.646;2023-08-20T10:15:09;100255.88;;;30.95;55.81
74218;BME280;62579;47.288;18.646;2023-08-20T10:17:37;100262.34;;;31.13;54.83
74218;BME280;62579;47.288;18.646;2023-08-20T10:20:04;100262.56;;;31.17;53.16
74218;BME280;62579;47.288;18.646;2023-08-20T10:22:40;100259.38;;;31.09;51.01
74218;BME280;62579;47.288;18.646;2023-08-20T10:25:10;100260.00;;;31.23;53.77
74218;BME280;62579;47.288;18.646;2023-08-20T10:27:38;100268.34;;;31.21;53.90
74218;BME280;62579;47.288;18.646;2023-08-20T10:30:10;100256.66;;;31.26;51.74
74218;BME280;62579;47.288;18.646;2023-08-20T10:35:08;100250.91;;;31.54;52.34
74218;BME280;62579;47.288;18.646;2023-08-20T10:37:34;100254.09;;;31.62;49.73
74218;BME280;62579;47.288;18.646;2023-08-20T10:39:59;100248.91;;;31.72;49.09
74218;BME280;62579;47.288;18.646;2023-08-20T10:42:28;100245.09;;;31.81;48.84
74218;BME280;62579;47.288;18.646;2023-08-20T10:45:00;100243.47;;;31.76;46.40
74218;BME280;62579;47.288;18.646;2023-08-20T10:50:07;100253.09;;;31.71;47.47
74218;BME280;62579;47.288;18.646;2023-08-20T10:52:38;100248.28;;;31.73;47.62
74218;BME280;62579;47.288;18.646;2023-08-20T10:55:04;100240.81;;;31.80;48.06
74218;BME280;62579;47.288;18.646;2023-08-20T10:57:35;100243.00;;;31.97;49.05
74218;BME280;62579;47.288;18.646;2023-08-20T11:00:04;100241.91;;;32.04;50.55
74218;BME280;62579;47.288;18.646;2023-08-20T11:02:40;100235.91;;;31.96;50.99
74218;BME280;62579;47.288;18.646;2023-08-20T11:05:17;100238.00;;;32.11;50.62
74218;BME280;62579;47.288;18.646;2023-08-20T11:07:45;100235.25;;;32.13;48.67
74218;BME280;62579;47.288;18.646;2023-08-20T11:10:13;100228.56;;;31.89;49.77
74218;BME280;62579;47.288;18.646;2023-08-20T11:12:38;100234.81;;;31.87;49.58
74218;BME280;62579;47.288;18.646;2023-08-20T11:15:04;100228.09;;;32.10;51.54
74218;BME280;62579;47.288;18.646;2023-08-20T11:17:29;100224.03;;;32.31;51.55
74218;BME280;62579;47.288;18.646;2023-08-20T11:19:55;100229.38;;;32.40;49.83
74218;BME280;62579;47.288;18.646;2023-08-20T11:22:20;100225.31;;;32.28;49.47
74218;BME280;62579;47.288;18.646;2023-08-20T11:24:46;100225.91;;;32.42;49.14
74218;BME280;62579;47.288;18.646;2023-08-20T11:27:26;100218.06;;;32.23;49.94
74218;BME280;62579;47.288;18.646;2023-08-20T11:29:52;100218.66;;;32.37;51.16
74218;BME280;62579;47.288;18.646;2023-08-20T11:32:26;100214.63;;;32.42;50.68
74218;BME280;62579;47.288;18.646;2023-08-20T11:34:52;100211.41;;;32.49;50.13
74218;BME280;62579;47.288;18.646;2023-08-20T11:37:20;100207.50;;;32.56;48.25
74218;BME280;62579;47.288;18.646;2023-08-20T11:39:50;100215.75;;;32.52;48.34
74218;BME280;62579;47.288;18.646;2023-08-20T11:42:16;100214.75;;;32.79;45.58
74218;BME280;62579;47.288;18.646;2023-08-20T11:44:43;100209.97;;;32.48;47.57
74218;BME280;62579;47.288;18.646;2023-08-20T11:47:16;100210.13;;;32.52;47.53
74218;BME280;62579;47.288;18.646;2023-08-20T11:49:42;100203.16;;;32.53;47.65
74218;BME280;62579;47.288;18.646;2023-08-20T11:52:07;100207.84;;;32.64;48.01
74218;BME280;62579;47.288;18.646;2023-08-20T11:54:33;100201.47;;;32.64;46.62
74218;BME280;62579;47.288;18.646;2023-08-20T11:57:03;100211.06;;;32.75;47.49
74218;BME280;62579;47.288;18.646;2023-08-20T11:59:29;100208.88;;;32.73;46.33
74218;BME280;62579;47.288;18.646;2023-08-20T12:02:02;100198.38;;;32.93;47.31
74218;BME280;62579;47.288;18.646;2023-08-20T12:04:30;100198.88;;;33.05;47.43
74218;BME280;62579;47.288;18.646;2023-08-20T12:07:07;100199.84;;;32.77;48.03
74218;BME280;62579;47.288;18.646;2023-08-20T12:09:33;100205.88;;;33.04;47.43
74218;BME280;62579;47.288;18.646;2023-08-20T12:11:59;100199.84;;;33.12;48.90
74218;BME280;62579;47.288;18.646;2023-08-20T12:14:25;100203.22;;;33.08;50.73
74218;BME280;62579;47.288;18.646;2023-08-20T12:16:50;100194.19;;;33.12;46.86
74218;BME280;62579;47.288;18.646;2023-08-20T12:19:16;100195.41;;;33.07;47.59
74218;BME280;62579;47.288;18.646;2023-08-20T12:21:41;100198.91;;;33.25;47.00
74218;BME280;62579;47.288;18.646;2023-08-20T12:24:09;100194.13;;;33.10;46.80
74218;BME280;62579;47.288;18.646;2023-08-20T12:26:39;100194.44;;;33.38;45.56
74218;BME280;62579;47.288;18.646;2023-08-20T12:29:05;100198.59;;;33.35;45.88
74218;BME280;62579;47.288;18.646;2023-08-20T12:31:31;100193.94;;;33.23;45.01
74218;BME280;62579;47.288;18.646;2023-08-20T12:33:57;100196.34;;;33.31;45.17
74218;BME280;62579;47.288;18.646;2023-08-20T12:36:22;100199.69;;;33.45;45.38
74218;BME280;62579;47.288;18.646;2023-08-20T12:49:33;100192.22;;;33.34;41.66
74218;BME280;62579;47.288;18.646;2023-08-20T12:51:59;100193.25;;;33.43;43.15
74218;BME280;62579;47.288;18.646;2023-08-20T12:54:24;100176.91;;;33.59;43.60
74218;BME280;62579;47.288;18.646;2023-08-20T12:56:50;100182.63;;;33.61;42.35
74218;BME280;62579;47.288;18.646;2023-08-20T12:59:15;100183.69;;;33.52;41.74
74218;BME280;62579;47.288;18.646;2023-08-20T13:01:40;100177.00;;;33.43;42.37
74218;BME280;62579;47.288;18.646;2023-08-20T13:04:06;100177.72;;;33.61;41.99
74218;BME280;62579;47.288;18.646;2023-08-20T13:06:32;100178.34;;;33.40;43.05